createdAt,value
2022-12-18T00:01:07.303Z,78635.56
2022-12-18T00:02:40.018Z,78643.47
2022-12-18T00:04:23.399Z,78629.63
2022-12-18T00:05:56.724Z,78623.69
2022-12-18T00:07:30.576Z,78617.75
2022-12-18T00:09:04.084Z,78621.72
2022-12-18T00:10:37.018Z,78611.81
2022-12-18T00:13:49.176Z,78607.88
2022-12-18T00:15:22.143Z,78605.88
2022-12-18T00:16:54.833Z,78607.88
2022-12-18T00:18:27.520Z,78609.84
2022-12-18T00:20:00.254Z,78597.97
2022-12-18T00:21:33.675Z,78590.06
2022-12-18T00:23:07.033Z,78592.03
2022-12-18T00:25:02.252Z,78580.16
2022-12-18T00:26:36.137Z,78590.06
2022-12-18T00:28:09.271Z,78584.13
2022-12-18T00:29:41.919Z,78590.06
2022-12-18T00:31:16.501Z,78578.19
2022-12-18T00:32:49.394Z,78582.16
2022-12-18T00:34:22.123Z,78576.22
2022-12-18T00:35:54.786Z,78572.25
2022-12-18T00:37:27.710Z,78562.38
2022-12-18T00:39:01.692Z,78568.31
2022-12-18T00:40:34.397Z,78576.22
2022-12-18T00:42:25.486Z,78556.44
2022-12-18T00:43:58.274Z,78552.47
2022-12-18T00:45:31.954Z,78552.47
2022-12-18T00:47:04.738Z,78550.50
2022-12-18T00:48:37.451Z,78558.41
2022-12-18T00:50:10.567Z,78550.50
2022-12-18T00:51:43.318Z,78554.44
2022-12-18T00:53:17.339Z,78566.31
2022-12-18T00:54:49.911Z,78552.47
2022-12-18T00:56:22.744Z,78552.47
2022-12-18T00:57:55.441Z,78558.41
2022-12-18T00:59:28.161Z,78550.50
2022-12-18T01:01:01.012Z,78544.56
2022-12-18T01:02:34.010Z,78534.66
2022-12-18T01:04:07.182Z,78532.69
2022-12-18T01:05:41.400Z,78530.72
2022-12-18T01:07:13.994Z,78532.69
2022-12-18T01:08:46.766Z,78534.66
2022-12-18T01:10:19.629Z,78538.63
2022-12-18T01:11:52.182Z,78528.72
2022-12-18T01:13:24.839Z,78528.72
2022-12-18T01:14:57.738Z,78510.94
2022-12-18T01:16:30.621Z,78508.94
2022-12-18T01:18:06.223Z,78508.94
2022-12-18T01:19:38.819Z,78512.91
2022-12-18T01:21:12.935Z,78514.88
2022-12-18T01:22:45.600Z,78514.88
2022-12-18T01:24:18.252Z,78518.84
2022-12-18T01:25:50.985Z,78518.84
2022-12-18T01:27:23.730Z,78522.81
2022-12-18T01:28:58.102Z,78510.94
2022-12-18T01:30:30.715Z,78520.81
2022-12-18T01:32:03.380Z,78514.88
2022-12-18T01:33:36.666Z,78510.94
2022-12-18T01:35:09.856Z,78516.88
2022-12-18T01:36:42.700Z,78514.88
2022-12-18T01:38:15.274Z,78508.94
2022-12-18T01:39:48.318Z,78510.94
2022-12-18T01:41:23.048Z,78518.84
2022-12-18T01:42:55.828Z,78516.88
2022-12-18T01:44:47.827Z,78506.97
2022-12-18T01:46:22.091Z,78506.97
2022-12-18T01:47:56.427Z,78518.84
2022-12-18T01:49:29.135Z,78514.88
2022-12-18T01:51:01.980Z,78510.94
2022-12-18T01:52:34.986Z,78524.78
2022-12-18T01:54:07.724Z,78530.72
2022-12-18T01:55:43.737Z,78526.75
2022-12-18T01:57:19.074Z,78520.81
2022-12-18T01:59:02.498Z,78522.81
2022-12-18T02:00:35.291Z,78520.81
2022-12-18T02:02:08.796Z,78512.91
2022-12-18T02:03:45.229Z,78526.75
2022-12-18T02:05:20.546Z,78522.81
2022-12-18T02:07:12.100Z,78514.88
2022-12-18T02:09:04.905Z,78526.75
2022-12-18T02:10:37.807Z,78522.81
2022-12-18T02:12:17.827Z,78530.72
2022-12-18T02:13:50.635Z,78518.84
2022-12-18T02:15:42.044Z,78530.72
2022-12-18T02:17:20.087Z,78530.72
2022-12-18T02:18:58.064Z,78524.78
2022-12-18T02:20:38.468Z,78530.72
2022-12-18T02:22:22.859Z,78526.75
2022-12-18T02:24:19.160Z,78526.75
2022-12-18T02:26:01.550Z,78540.59
2022-12-18T02:27:35.425Z,78546.53
2022-12-18T02:29:37.333Z,78532.69
2022-12-18T02:31:13.021Z,78546.53
2022-12-18T02:32:48.880Z,78542.59
2022-12-18T02:34:24.222Z,78546.53
2022-12-18T02:35:58.962Z,78544.56
2022-12-18T02:37:33.720Z,78550.50
2022-12-18T02:39:10.521Z,78546.53
2022-12-18T02:40:47.555Z,78544.56
2022-12-18T02:42:23.811Z,78550.50
2022-12-18T02:44:01.197Z,78550.50
2022-12-18T02:45:34.757Z,78544.56
2022-12-18T02:47:11.280Z,78548.50
2022-12-18T02:48:44.336Z,78534.66
2022-12-18T02:50:24.183Z,78534.66
2022-12-18T02:52:10.431Z,78534.66
2022-12-18T02:53:51.005Z,78522.81
2022-12-18T02:55:34.294Z,78520.81
2022-12-18T02:57:17.641Z,78532.69
2022-12-18T02:58:54.604Z,78522.81
2022-12-18T03:00:46.944Z,78534.66
2022-12-18T03:02:30.672Z,78526.75
2022-12-18T03:04:07.370Z,78530.72
2022-12-18T03:06:00.164Z,78526.75
2022-12-18T03:07:39.354Z,78510.94
2022-12-18T03:09:20.239Z,78512.91
2022-12-18T03:11:13.804Z,78501.03
2022-12-18T03:12:54.517Z,78503.00
2022-12-18T03:14:30.685Z,78506.97
2022-12-18T03:16:04.357Z,78506.97
2022-12-18T03:17:38.193Z,78503.00
2022-12-18T03:19:17.603Z,78497.06
2022-12-18T03:20:51.187Z,78495.09
2022-12-18T03:22:28.604Z,78501.03
2022-12-18T03:24:02.176Z,78487.19
2022-12-18T03:25:36.636Z,78493.13
2022-12-18T03:27:13.127Z,78495.09
2022-12-18T03:28:52.569Z,78495.09
2022-12-18T03:30:27.577Z,78491.16
2022-12-18T03:32:04.329Z,78495.09
2022-12-18T03:33:40.977Z,78491.16
2022-12-18T03:35:15.654Z,78495.09
2022-12-18T03:36:49.793Z,78489.16
2022-12-18T03:38:22.938Z,78499.06
2022-12-18T03:39:58.997Z,78483.22
2022-12-18T03:41:46.428Z,78499.06
2022-12-18T03:43:31.220Z,78518.84
2022-12-18T03:45:13.254Z,78510.94
2022-12-18T03:46:56.278Z,78497.06
2022-12-18T03:48:39.176Z,78495.09
2022-12-18T03:50:38.960Z,78505.00
2022-12-18T03:52:15.780Z,78514.88
2022-12-18T03:53:49.300Z,78520.81
2022-12-18T03:55:25.135Z,78506.97
2022-12-18T03:57:08.164Z,78503.00
2022-12-18T03:58:42.627Z,78501.03
2022-12-18T04:00:29.813Z,78506.97
2022-12-18T04:02:11.033Z,78501.03
2022-12-18T04:03:45.857Z,78495.09
2022-12-18T04:05:19.778Z,78499.06
2022-12-18T04:06:53.428Z,78499.06
2022-12-18T04:08:26.974Z,78491.16
2022-12-18T04:10:10.187Z,78481.25
2022-12-18T04:11:45.692Z,78475.31
2022-12-18T04:13:29.511Z,78477.28
2022-12-18T04:15:04.232Z,78475.31
2022-12-18T04:16:36.989Z,78465.44
2022-12-18T04:18:12.201Z,78463.44
2022-12-18T04:19:49.019Z,78473.34
2022-12-18T04:21:22.386Z,78465.44
2022-12-18T04:22:55.784Z,78477.28
2022-12-18T04:24:28.393Z,78479.28
2022-12-18T04:26:12.821Z,78475.31
2022-12-18T04:28:11.272Z,78481.25
2022-12-18T04:29:45.000Z,78479.28
2022-12-18T04:31:18.028Z,78475.31
2022-12-18T04:32:52.295Z,78487.19
2022-12-18T04:34:26.322Z,78485.22
2022-12-18T04:36:00.479Z,78485.22
2022-12-18T04:37:33.850Z,78479.28
2022-12-18T04:39:06.525Z,78493.13
2022-12-18T04:40:40.418Z,78479.28
2022-12-18T04:42:22.798Z,78483.22
2022-12-18T04:43:55.607Z,78487.19
2022-12-18T04:45:28.153Z,78483.22
2022-12-18T04:47:00.750Z,78485.22
2022-12-18T04:48:33.932Z,78475.31
2022-12-18T04:50:08.911Z,78483.22
2022-12-18T04:51:41.512Z,78479.28
2022-12-18T04:53:14.369Z,78489.16
2022-12-18T04:54:47.032Z,78487.19
2022-12-18T04:56:19.911Z,78485.22
2022-12-18T04:57:52.552Z,78479.28
2022-12-18T04:59:25.245Z,78477.28
2022-12-18T05:00:57.891Z,78475.31
2022-12-18T05:02:30.888Z,78469.38
2022-12-18T05:04:03.754Z,78467.41
2022-12-18T05:05:36.908Z,78469.38
2022-12-18T05:07:09.484Z,78467.41
2022-12-18T05:08:42.297Z,78469.38
2022-12-18T05:10:14.936Z,78459.50
2022-12-18T05:11:48.235Z,78467.41
2022-12-18T05:13:20.857Z,78467.41
2022-12-18T05:14:53.864Z,78469.38
2022-12-18T05:16:26.650Z,78459.50
2022-12-18T05:17:59.972Z,78461.47
2022-12-18T05:19:32.934Z,78459.50
2022-12-18T05:21:06.157Z,78447.63
2022-12-18T05:22:38.843Z,78451.56
2022-12-18T05:24:11.525Z,78463.44
2022-12-18T05:25:44.140Z,78443.66
2022-12-18T05:27:17.909Z,78441.69
2022-12-18T05:28:50.458Z,78443.66
2022-12-18T05:30:23.736Z,78439.72
2022-12-18T05:31:56.855Z,78437.72
2022-12-18T05:33:31.453Z,78451.56
2022-12-18T05:35:04.372Z,78459.50
2022-12-18T05:36:36.955Z,78449.59
2022-12-18T05:38:09.613Z,78455.53
2022-12-18T05:39:42.507Z,78439.72
2022-12-18T05:41:15.118Z,78427.84
2022-12-18T05:42:47.777Z,78425.84
2022-12-18T05:44:20.453Z,78431.78
2022-12-18T05:45:54.043Z,78435.75
2022-12-18T05:47:27.928Z,78421.91
2022-12-18T05:49:01.487Z,78427.84
2022-12-18T05:50:37.769Z,78423.88
2022-12-18T05:52:11.309Z,78429.81
2022-12-18T05:53:44.117Z,78435.75
2022-12-18T05:55:16.838Z,78439.72
2022-12-18T05:56:49.390Z,78443.66
2022-12-18T05:58:22.130Z,78431.78
2022-12-18T05:59:54.647Z,78435.75
2022-12-18T06:01:27.779Z,78451.56
2022-12-18T06:03:01.093Z,78441.69
2022-12-18T06:04:34.376Z,78451.56
2022-12-18T06:06:14.451Z,78451.56
2022-12-18T06:07:47.052Z,78433.78
2022-12-18T06:09:19.775Z,78427.84
2022-12-18T06:10:54.017Z,78425.84
2022-12-18T06:12:26.887Z,78427.84
2022-12-18T06:14:00.711Z,78437.72
2022-12-18T06:15:34.244Z,78423.88
2022-12-18T06:17:07.332Z,78427.84
2022-12-18T06:18:40.205Z,78423.88
2022-12-18T06:20:12.777Z,78423.88
2022-12-18T06:21:45.441Z,78423.88
2022-12-18T06:23:18.395Z,78423.88
2022-12-18T06:24:51.253Z,78419.94
2022-12-18T06:26:28.048Z,78412.00
2022-12-18T06:28:01.118Z,78419.94
2022-12-18T06:29:34.069Z,78402.13
2022-12-18T06:31:07.074Z,78404.09
2022-12-18T06:32:39.779Z,78415.97
2022-12-18T06:34:12.401Z,78408.06
2022-12-18T06:35:45.266Z,78408.06
2022-12-18T06:37:18.008Z,78386.28
2022-12-18T06:38:50.691Z,78386.28
2022-12-18T06:40:23.335Z,78376.41
2022-12-18T06:41:56.975Z,78368.50
2022-12-18T06:43:29.660Z,78360.56
2022-12-18T06:45:02.221Z,78368.50
2022-12-18T06:46:35.836Z,78374.44
2022-12-18T06:48:08.729Z,78372.44
2022-12-18T06:49:41.341Z,78364.53
2022-12-18T06:51:16.715Z,78360.56
2022-12-18T06:52:49.266Z,78362.56
2022-12-18T06:54:22.249Z,78364.53
2022-12-18T06:56:03.924Z,78356.63
2022-12-18T06:57:39.687Z,78348.72
2022-12-18T06:59:12.307Z,78342.78
2022-12-18T07:00:45.298Z,78332.88
2022-12-18T07:02:18.887Z,78328.94
2022-12-18T07:03:55.944Z,78340.78
2022-12-18T07:05:28.443Z,78336.84
2022-12-18T07:07:01.404Z,78328.94
2022-12-18T07:08:35.180Z,78326.94
2022-12-18T07:10:08.618Z,78330.91
2022-12-18T07:11:41.452Z,78338.81
2022-12-18T07:13:14.546Z,78324.97
2022-12-18T07:14:48.080Z,78324.97
2022-12-18T07:16:25.328Z,78352.66
2022-12-18T07:17:58.255Z,78336.84
2022-12-18T07:19:31.144Z,78336.84
2022-12-18T07:21:06.072Z,78319.03
2022-12-18T07:22:38.816Z,78321.00
2022-12-18T07:24:11.414Z,78297.28
2022-12-18T07:25:44.170Z,78301.22
2022-12-18T07:27:16.759Z,78328.94
2022-12-18T07:28:49.856Z,78305.19
2022-12-18T07:30:22.533Z,78287.38
2022-12-18T07:31:55.469Z,78279.47
2022-12-18T07:33:28.130Z,78285.41
2022-12-18T07:35:01.815Z,78297.28
2022-12-18T07:36:35.098Z,78289.34
2022-12-18T07:38:07.947Z,78285.41
2022-12-18T07:39:40.514Z,78273.53
2022-12-18T07:41:14.398Z,78283.44
2022-12-18T07:42:47.102Z,78293.31
2022-12-18T07:44:20.062Z,78293.31
2022-12-18T07:45:52.737Z,78299.25
2022-12-18T07:47:25.368Z,78287.38
2022-12-18T07:48:57.999Z,78305.19
2022-12-18T07:50:30.921Z,78297.28
2022-12-18T07:52:03.644Z,78289.34
2022-12-18T07:53:37.119Z,78303.22
2022-12-18T07:55:10.061Z,78279.47
2022-12-18T07:56:43.062Z,78301.22
2022-12-18T07:58:15.739Z,78277.50
2022-12-18T07:59:48.350Z,78269.56
2022-12-18T08:01:21.325Z,78275.50
2022-12-18T08:02:54.865Z,78261.66
2022-12-18T08:04:27.778Z,78273.53
2022-12-18T08:06:01.462Z,78277.50
2022-12-18T08:07:34.265Z,78265.63
2022-12-18T08:09:07.333Z,78257.72
2022-12-18T08:10:40.501Z,78245.84
2022-12-18T08:12:13.376Z,78226.06
2022-12-18T08:13:46.403Z,78228.03
2022-12-18T08:15:19.619Z,78233.97
2022-12-18T08:16:52.372Z,78206.28
2022-12-18T08:18:25.054Z,78210.22
2022-12-18T08:19:57.728Z,78226.06
2022-12-18T08:21:31.513Z,78222.09
2022-12-18T08:23:04.132Z,78235.94
2022-12-18T08:24:36.904Z,78249.78
2022-12-18T08:26:10.101Z,78233.97
2022-12-18T08:27:43.557Z,78228.03
2022-12-18T08:29:21.469Z,78216.16
2022-12-18T08:30:54.395Z,78257.72
2022-12-18T08:32:28.108Z,78245.84
2022-12-18T08:34:00.988Z,78269.56
2022-12-18T08:35:39.823Z,78263.63
2022-12-18T08:37:13.855Z,78245.84
2022-12-18T08:38:50.492Z,78243.84
2022-12-18T08:40:23.615Z,78255.72
2022-12-18T08:42:14.758Z,78249.78
2022-12-18T08:44:06.084Z,78253.75
2022-12-18T08:45:39.207Z,78241.88
2022-12-18T08:47:12.233Z,78237.94
2022-12-18T08:48:45.919Z,78249.78
2022-12-18T08:50:19.191Z,78249.78
2022-12-18T08:51:57.121Z,78257.72
2022-12-18T08:53:35.477Z,78255.72
2022-12-18T08:55:09.445Z,78257.72
2022-12-18T08:56:42.307Z,78249.78
2022-12-18T08:58:15.188Z,78245.84
2022-12-18T08:59:47.994Z,78259.69
2022-12-18T09:01:21.463Z,78253.75
2022-12-18T09:02:54.702Z,78247.81
2022-12-18T09:04:27.622Z,78249.78
2022-12-18T09:06:00.791Z,78239.91
2022-12-18T09:07:33.417Z,78245.84
2022-12-18T09:09:06.251Z,78233.97
2022-12-18T09:10:46.171Z,78241.88
2022-12-18T09:12:18.950Z,78237.94
2022-12-18T09:13:52.266Z,78245.84
2022-12-18T09:15:25.380Z,78228.03
2022-12-18T09:16:58.521Z,78232.00
2022-12-18T09:18:31.810Z,78243.84
2022-12-18T09:20:04.794Z,78241.88
2022-12-18T09:21:37.643Z,78235.94
2022-12-18T09:23:10.671Z,78235.94
2022-12-18T09:24:43.971Z,78257.72
2022-12-18T09:26:16.713Z,78277.50
2022-12-18T09:27:50.831Z,78275.50
2022-12-18T09:29:23.963Z,78269.56
2022-12-18T09:30:57.018Z,78277.50
2022-12-18T09:32:29.991Z,78263.63
2022-12-18T09:34:02.950Z,78263.63
2022-12-18T09:35:40.786Z,78253.75
2022-12-18T09:37:14.010Z,78235.94
2022-12-18T09:38:47.099Z,78253.75
2022-12-18T09:40:22.345Z,78241.88
2022-12-18T09:41:58.462Z,78249.78
2022-12-18T09:43:38.612Z,78245.84
2022-12-18T09:45:14.686Z,78243.84
2022-12-18T09:46:50.832Z,78245.84
2022-12-18T09:48:27.727Z,78235.94
2022-12-18T09:50:02.700Z,78230.00
2022-12-18T09:51:41.043Z,78216.16
2022-12-18T09:53:17.363Z,78208.25
2022-12-18T09:54:56.504Z,78232.00
2022-12-18T09:56:30.386Z,78208.25
2022-12-18T09:58:07.179Z,78214.19
2022-12-18T09:59:41.118Z,78218.16
2022-12-18T10:01:22.286Z,78210.22
2022-12-18T10:03:00.384Z,78190.44
2022-12-18T10:04:33.615Z,78198.34
2022-12-18T10:06:25.586Z,78194.41
2022-12-18T10:08:08.372Z,78192.44
2022-12-18T10:09:43.811Z,78172.66
2022-12-18T10:11:35.223Z,78164.72
2022-12-18T10:13:27.252Z,78170.66
2022-12-18T10:15:06.080Z,78166.72
2022-12-18T10:16:38.827Z,78158.78
2022-12-18T10:18:20.199Z,78162.75
2022-12-18T10:19:57.833Z,78166.72
2022-12-18T10:21:44.488Z,78158.78
2022-12-18T10:23:19.820Z,78158.78
2022-12-18T10:24:58.487Z,78162.75
2022-12-18T10:26:33.173Z,78158.78
2022-12-18T10:28:13.168Z,78152.88
2022-12-18T10:29:47.035Z,78142.97
2022-12-18T10:31:21.764Z,78137.03
2022-12-18T10:33:01.908Z,78119.22
2022-12-18T10:34:35.393Z,78115.28
2022-12-18T10:36:08.460Z,78119.22
2022-12-18T10:38:00.275Z,78123.19
2022-12-18T10:39:33.273Z,78127.16
2022-12-18T10:41:10.952Z,78123.19
2022-12-18T10:42:45.367Z,78121.22
2022-12-18T10:44:19.783Z,78139.03
2022-12-18T10:46:03.136Z,78156.81
2022-12-18T10:47:36.613Z,78141.00
2022-12-18T10:49:20.527Z,78162.75
2022-12-18T10:51:12.261Z,78142.97
2022-12-18T10:52:54.122Z,78131.09
2022-12-18T10:54:27.202Z,78131.09
2022-12-18T10:56:00.250Z,78125.16
2022-12-18T10:57:33.144Z,78111.31
2022-12-18T10:59:07.561Z,78111.31
2022-12-18T11:00:40.399Z,78109.34
2022-12-18T11:02:27.965Z,78119.22
2022-12-18T11:04:03.131Z,78103.41
2022-12-18T11:05:38.247Z,78107.38
2022-12-18T11:07:12.372Z,78107.38
2022-12-18T11:08:58.271Z,78097.47
2022-12-18T11:10:34.766Z,78101.44
2022-12-18T11:12:18.690Z,78107.38
2022-12-18T11:14:08.230Z,78099.44
2022-12-18T11:15:41.799Z,78105.38
2022-12-18T11:17:26.463Z,78093.53
2022-12-18T11:19:21.687Z,78107.38
2022-12-18T11:21:00.851Z,78103.41
2022-12-18T11:22:35.074Z,78113.31
2022-12-18T11:24:20.135Z,78107.38
2022-12-18T11:25:59.252Z,78097.47
2022-12-18T11:27:31.976Z,78095.50
2022-12-18T11:29:11.650Z,78085.59
2022-12-18T11:30:44.172Z,78095.50
2022-12-18T11:32:16.998Z,78099.44
2022-12-18T11:35:57.654Z,78083.63
2022-12-18T11:37:31.104Z,78087.59
2022-12-18T11:39:11.200Z,78087.59
2022-12-18T11:40:46.591Z,78087.59
2022-12-18T11:42:26.328Z,78083.63
2022-12-18T11:44:03.677Z,78073.75
2022-12-18T11:45:42.566Z,78071.75
2022-12-18T11:47:15.314Z,78083.63
2022-12-18T11:48:57.996Z,78079.66
2022-12-18T11:50:39.657Z,78071.75
2022-12-18T11:52:21.779Z,78055.94
2022-12-18T11:53:55.139Z,78067.81
2022-12-18T11:55:37.327Z,78071.75
2022-12-18T11:57:10.500Z,78079.66
2022-12-18T11:58:46.863Z,78075.72
2022-12-18T12:00:21.202Z,78079.66
2022-12-18T12:01:54.321Z,78087.59
2022-12-18T12:03:36.956Z,78071.75
2022-12-18T12:05:28.374Z,78075.72
2022-12-18T12:07:09.582Z,78081.66
2022-12-18T12:08:46.383Z,78091.53
2022-12-18T12:10:25.350Z,78083.63
2022-12-18T12:12:10.847Z,78079.66
2022-12-18T12:14:01.976Z,78067.81
2022-12-18T12:15:43.817Z,78079.66
2022-12-18T12:17:35.268Z,78079.66
2022-12-18T12:19:14.596Z,78069.78
2022-12-18T12:20:50.303Z,78071.75
2022-12-18T12:22:23.103Z,78067.81
2022-12-18T12:24:11.331Z,78063.84
2022-12-18T12:25:50.131Z,78051.97
2022-12-18T12:27:26.084Z,78051.97
2022-12-18T12:29:21.134Z,78048.03
2022-12-18T12:31:09.503Z,78055.94
2022-12-18T12:32:54.351Z,78044.06
2022-12-18T12:34:36.491Z,78046.03
2022-12-18T12:36:26.077Z,78046.03
2022-12-18T12:38:21.654Z,78048.03
2022-12-18T12:39:56.254Z,78051.97
2022-12-18T12:41:51.271Z,78046.03
2022-12-18T12:43:26.594Z,78048.03
2022-12-18T12:45:03.060Z,78055.94
2022-12-18T12:46:39.717Z,78046.03
2022-12-18T12:48:18.349Z,78048.03
2022-12-18T12:49:51.952Z,78048.03
2022-12-18T12:51:24.725Z,78059.88
2022-12-18T12:52:58.700Z,78057.91
2022-12-18T12:54:33.616Z,78057.91
2022-12-18T12:56:07.156Z,78036.16
2022-12-18T12:57:47.467Z,78040.09
2022-12-18T12:59:39.581Z,78036.16
2022-12-18T13:03:26.064Z,78022.31
2022-12-18T13:04:59.051Z,78036.16
2022-12-18T13:06:51.472Z,78020.31
2022-12-18T13:08:24.656Z,78010.44
2022-12-18T13:10:34.207Z,78012.41
2022-12-18T13:12:33.280Z,78016.38
2022-12-18T13:14:21.448Z,78024.28
2022-12-18T13:16:08.053Z,78002.53
2022-12-18T13:17:41.404Z,78008.47
2022-12-18T13:19:22.906Z,77994.63
2022-12-18T13:20:59.900Z,78002.53
2022-12-18T13:22:40.505Z,77994.63
2022-12-18T13:24:24.187Z,77988.69
2022-12-18T13:25:57.584Z,77994.63
2022-12-18T13:27:45.542Z,78000.53
2022-12-18T13:29:36.925Z,77996.59
2022-12-18T13:31:09.739Z,77986.69
2022-12-18T13:32:42.935Z,77984.72
2022-12-18T13:34:29.304Z,77976.81
2022-12-18T13:36:27.937Z,77968.91
2022-12-18T13:38:01.183Z,77957.03
2022-12-18T13:39:35.506Z,77959.00
2022-12-18T13:41:14.535Z,77953.06
2022-12-18T13:43:09.117Z,77955.06
2022-12-18T13:44:43.080Z,77951.09
2022-12-18T13:46:27.905Z,77945.16
2022-12-18T13:48:00.877Z,77937.25
2022-12-18T13:49:41.301Z,77937.25
2022-12-18T13:51:19.226Z,77941.22
2022-12-18T13:52:52.985Z,77935.28
2022-12-18T13:54:26.275Z,77935.28
2022-12-18T13:55:59.751Z,77937.25
2022-12-18T13:57:36.637Z,77935.28
2022-12-18T13:59:13.882Z,77937.25
2022-12-18T14:00:47.064Z,77941.22
2022-12-18T14:02:23.546Z,77937.25
2022-12-18T14:04:18.459Z,77937.25
2022-12-18T14:05:55.982Z,77937.25
2022-12-18T14:07:30.841Z,77935.28
2022-12-18T14:09:09.581Z,77931.31
2022-12-18T14:10:48.990Z,77937.25
2022-12-18T14:12:42.962Z,77925.38
2022-12-18T14:14:17.533Z,77925.38
2022-12-18T14:15:51.580Z,77925.38
2022-12-18T14:17:24.399Z,77925.38
2022-12-18T14:19:02.480Z,77913.50
2022-12-18T14:20:52.609Z,77913.50
2022-12-18T14:22:31.469Z,77905.59
2022-12-18T14:24:05.648Z,77911.53
2022-12-18T14:25:38.450Z,77913.50
2022-12-18T14:27:21.863Z,77913.50
2022-12-18T14:28:55.832Z,77909.56
2022-12-18T14:30:31.235Z,77917.47
2022-12-18T14:32:16.500Z,77915.50
2022-12-18T14:33:50.113Z,77913.50
2022-12-18T14:35:23.763Z,77909.56
2022-12-18T14:36:57.454Z,77913.50
2022-12-18T14:38:36.065Z,77909.56
2022-12-18T14:40:14.266Z,77917.47
2022-12-18T14:41:49.909Z,77905.59
2022-12-18T14:43:22.873Z,77917.47
2022-12-18T14:45:14.643Z,77919.44
2022-12-18T14:46:48.566Z,77925.38
2022-12-18T14:48:24.176Z,77917.47
2022-12-18T14:49:57.116Z,77913.50
2022-12-18T14:51:31.144Z,77909.56
2022-12-18T14:53:04.409Z,77901.66
2022-12-18T14:54:38.761Z,77893.72
2022-12-18T14:56:14.639Z,77901.66
2022-12-18T14:57:50.734Z,77883.84
2022-12-18T14:59:25.177Z,77885.81
2022-12-18T15:00:58.598Z,77889.78
2022-12-18T15:02:31.710Z,77881.88
2022-12-18T15:04:05.293Z,77875.94
2022-12-18T15:05:39.166Z,77871.97
2022-12-18T15:07:17.685Z,77871.97
2022-12-18T15:08:52.026Z,77866.03
2022-12-18T15:10:26.178Z,77871.97
2022-12-18T15:12:00.105Z,77862.09
2022-12-18T15:13:33.032Z,77854.16
2022-12-18T15:15:26.952Z,77862.09
2022-12-18T15:17:00.805Z,77856.16
2022-12-18T15:18:36.798Z,77854.16
2022-12-18T15:20:11.536Z,77862.09
2022-12-18T15:21:44.803Z,77856.16
2022-12-18T15:23:22.049Z,77860.09
2022-12-18T15:24:59.325Z,77856.16
2022-12-18T15:26:38.384Z,77852.19
2022-12-18T15:28:29.545Z,77856.16
2022-12-18T15:30:02.288Z,77854.16
2022-12-18T15:31:39.147Z,77864.06
2022-12-18T15:33:23.517Z,77848.25
2022-12-18T15:35:15.054Z,77856.16
2022-12-18T15:36:47.781Z,77858.13
2022-12-18T15:38:20.465Z,77870.00
2022-12-18T15:39:53.158Z,77862.09
2022-12-18T15:41:26.163Z,77858.13
2022-12-18T15:43:17.599Z,77858.13
2022-12-18T15:44:50.295Z,77866.03
2022-12-18T15:46:24.345Z,77858.13
2022-12-18T15:47:57.319Z,77866.03
2022-12-18T15:49:30.003Z,77873.94
2022-12-18T15:51:03.031Z,77862.09
2022-12-18T15:52:40.610Z,77870.00
2022-12-18T15:54:14.900Z,77868.00
2022-12-18T15:56:06.064Z,77862.09
2022-12-18T15:57:39.383Z,77862.09
2022-12-18T15:59:21.915Z,77864.06
2022-12-18T16:00:56.808Z,77856.16
2022-12-18T16:02:30.629Z,77858.13
2022-12-18T16:04:03.639Z,77844.28
2022-12-18T16:05:36.665Z,77838.34
2022-12-18T16:07:19.241Z,77840.31
2022-12-18T16:08:56.911Z,77836.38
2022-12-18T16:10:29.781Z,77832.41
2022-12-18T16:12:04.456Z,77826.47
2022-12-18T16:13:37.409Z,77832.41
2022-12-18T16:15:11.793Z,77814.59
2022-12-18T16:16:45.014Z,77826.47
2022-12-18T16:18:17.771Z,77822.53
2022-12-18T16:19:50.637Z,77818.56
2022-12-18T16:21:23.758Z,77806.69
2022-12-18T16:22:59.117Z,77802.75
2022-12-18T16:24:33.546Z,77798.78
2022-12-18T16:26:06.349Z,77790.88
2022-12-18T16:27:38.988Z,77784.94
2022-12-18T16:29:11.971Z,77769.13
2022-12-18T16:30:46.191Z,77779.00
2022-12-18T16:32:20.211Z,77775.06
2022-12-18T16:34:10.903Z,77775.06
2022-12-18T16:35:43.588Z,77771.09
2022-12-18T16:37:17.287Z,77775.06
2022-12-18T16:38:50.408Z,77771.09
2022-12-18T16:40:23.380Z,77759.22
2022-12-18T16:41:56.292Z,77759.22
2022-12-18T16:43:30.964Z,77747.34
2022-12-18T16:45:04.443Z,77755.28
2022-12-18T16:46:38.383Z,77755.28
2022-12-18T16:48:11.069Z,77747.34
2022-12-18T16:49:46.197Z,77763.19
2022-12-18T16:51:19.240Z,77759.22
2022-12-18T16:52:52.126Z,77759.22
2022-12-18T16:54:25.263Z,77755.28
2022-12-18T16:55:58.103Z,77751.31
2022-12-18T16:57:30.870Z,77767.13
2022-12-18T16:59:04.503Z,77753.28
2022-12-18T17:00:41.431Z,77751.31
2022-12-18T17:02:17.093Z,77757.25
2022-12-18T17:03:52.575Z,77765.16
2022-12-18T17:05:25.309Z,77757.25
2022-12-18T17:06:57.918Z,77747.34
2022-12-18T17:08:30.548Z,77747.34
2022-12-18T17:10:04.407Z,77741.44
2022-12-18T17:11:37.474Z,77749.34
2022-12-18T17:13:11.623Z,77745.38
2022-12-18T17:14:44.406Z,77735.50
2022-12-18T17:16:17.978Z,77761.22
2022-12-18T17:17:51.224Z,77751.31
2022-12-18T17:19:26.788Z,77743.41
2022-12-18T17:21:03.698Z,77743.41
2022-12-18T17:22:36.471Z,77739.44
2022-12-18T17:24:09.528Z,77743.41
2022-12-18T17:25:42.178Z,77737.47
2022-12-18T17:27:15.202Z,77741.44
2022-12-18T17:28:48.537Z,77743.41
2022-12-18T17:30:21.106Z,77747.34
2022-12-18T17:31:53.762Z,77739.44
2022-12-18T17:33:28.497Z,77739.44
2022-12-18T17:35:06.822Z,77739.44
2022-12-18T17:36:42.098Z,77741.44
2022-12-18T17:38:14.794Z,77735.50
2022-12-18T17:39:47.895Z,77741.44
2022-12-18T17:41:21.284Z,77743.41
2022-12-18T17:42:54.121Z,77747.34
2022-12-18T17:44:27.333Z,77745.38
2022-12-18T17:46:04.767Z,77741.44
2022-12-18T17:47:39.200Z,77739.44
2022-12-18T17:49:14.331Z,77735.50
2022-12-18T17:50:47.036Z,77739.44
2022-12-18T17:52:19.959Z,77743.41
2022-12-18T17:53:53.201Z,77747.34
2022-12-18T17:55:26.440Z,77739.44
2022-12-18T17:56:59.202Z,77723.63
2022-12-18T17:58:33.083Z,77739.44
2022-12-18T18:00:08.812Z,77731.53
2022-12-18T18:01:44.794Z,77745.38
2022-12-18T18:03:20.075Z,77745.38
2022-12-18T18:04:52.959Z,77753.28
2022-12-18T18:06:26.188Z,77739.44
2022-12-18T18:07:59.077Z,77749.34
2022-12-18T18:09:31.780Z,77739.44
2022-12-18T18:11:27.633Z,77733.50
2022-12-18T18:13:19.406Z,77727.59
2022-12-18T18:14:52.288Z,77735.50
2022-12-18T18:16:25.673Z,77729.56
2022-12-18T18:17:58.494Z,77739.44
2022-12-18T18:19:31.315Z,77731.53
2022-12-18T18:21:07.912Z,77731.53
2022-12-18T18:22:41.171Z,77721.66
2022-12-18T18:24:17.218Z,77721.66
2022-12-18T18:25:52.759Z,77715.72
2022-12-18T18:27:26.436Z,77717.69
2022-12-18T18:29:00.924Z,77719.66
2022-12-18T18:30:37.155Z,77719.66
2022-12-18T18:32:09.918Z,77707.81
2022-12-18T18:33:43.152Z,77713.72
2022-12-18T18:35:45.110Z,77699.88
2022-12-18T18:37:09.725Z,77680.09
2022-12-18T18:38:48.084Z,77695.94
2022-12-18T18:40:22.596Z,77691.97
2022-12-18T18:41:55.407Z,77680.09
2022-12-18T18:43:28.168Z,77682.09
2022-12-18T18:45:01.022Z,77684.06
2022-12-18T18:46:33.851Z,77676.16
2022-12-18T18:48:06.535Z,77678.13
2022-12-18T18:49:39.223Z,77680.09
2022-12-18T18:51:20.322Z,77680.09
2022-12-18T18:52:54.165Z,77680.09
2022-12-18T18:54:27.007Z,77682.09
2022-12-18T18:56:45.366Z,77682.09
2022-12-18T18:57:57.146Z,77678.13